sensor_id;sensor_type;location;lat;lon;timestamp;temperature;humidity
6186;DHT22;3126;52.738;8.316;2022-07-04T00:01:53;15.60;85.20
6186;DHT22;3126;52.738;8.316;2022-07-04T00:06:54;15.60;84.80
6186;DHT22;3126;52.738;8.316;2022-07-04T00:11:55;15.50;85.50
6186;DHT22;3126;52.738;8.316;2022-07-04T00:16:55;15.50;85.90
6186;DHT22;3126;52.738;8.316;2022-07-04T00:21:56;15.50;85.60
6186;DHT22;3126;52.738;8.316;2022-07-04T00:26:57;15.50;86.10
6186;DHT22;3126;52.738;8.316;2022-07-04T00:31:57;15.40;86.30
6186;DHT22;3126;52.738;8.316;2022-07-04T00:36:58;15.30;86.00
6186;DHT22;3126;52.738;8.316;2022-07-04T00:41:58;15.20;86.60
6186;DHT22;3126;52.738;8.316;2022-07-04T00:46:59;15.20;87.20
6186;DHT22;3126;52.738;8.316;2022-07-04T00:52:00;15.20;87.00
6186;DHT22;3126;52.738;8.316;2022-07-04T00:57:01;15.10;87.40
6186;DHT22;3126;52.738;8.316;2022-07-04T01:02:02;15.10;87.30
6186;DHT22;3126;52.738;8.316;2022-07-04T01:07:04;15.10;87.70
6186;DHT22;3126;52.738;8.316;2022-07-04T01:12:05;15.00;87.40
6186;DHT22;3126;52.738;8.316;2022-07-04T01:17:06;15.00;87.70
6186;DHT22;3126;52.738;8.316;2022-07-04T01:22:07;15.00;87.70
6186;DHT22;3126;52.738;8.316;2022-07-04T01:27:08;14.90;87.70
6186;DHT22;3126;52.738;8.316;2022-07-04T01:32:09;14.90;87.60
6186;DHT22;3126;52.738;8.316;2022-07-04T01:37:10;14.90;87.70
6186;DHT22;3126;52.738;8.316;2022-07-04T01:42:11;14.80;87.90
6186;DHT22;3126;52.738;8.316;2022-07-04T01:47:12;14.70;88.20
6186;DHT22;3126;52.738;8.316;2022-07-04T01:52:12;14.60;88.70
6186;DHT22;3126;52.738;8.316;2022-07-04T01:57:16;14.50;89.40
6186;DHT22;3126;52.738;8.316;2022-07-04T02:08:13;14.40;90.40
6186;DHT22;3126;52.738;8.316;2022-07-04T02:13:14;14.30;90.20
6186;DHT22;3126;52.738;8.316;2022-07-04T02:18:14;14.30;90.20
6186;DHT22;3126;52.738;8.316;2022-07-04T02:23:15;14.30;90.80
6186;DHT22;3126;52.738;8.316;2022-07-04T02:28:16;14.30;90.70
6186;DHT22;3126;52.738;8.316;2022-07-04T02:33:18;14.30;90.10
6186;DHT22;3126;52.738;8.316;2022-07-04T02:38:19;14.20;90.30
6186;DHT22;3126;52.738;8.316;2022-07-04T02:43:19;14.20;90.40
6186;DHT22;3126;52.738;8.316;2022-07-04T02:48:20;14.10;90.70
6186;DHT22;3126;52.738;8.316;2022-07-04T02:53:21;14.10;90.50
6186;DHT22;3126;52.738;8.316;2022-07-04T02:58:22;14.00;90.80
6186;DHT22;3126;52.738;8.316;2022-07-04T03:03:22;13.90;90.70
6186;DHT22;3126;52.738;8.316;2022-07-04T03:08:23;13.90;91.50
6186;DHT22;3126;52.738;8.316;2022-07-04T03:13:23;13.90;91.30
6186;DHT22;3126;52.738;8.316;2022-07-04T03:18:25;13.80;91.70
6186;DHT22;3126;52.738;8.316;2022-07-04T03:23:25;13.80;91.10
6186;DHT22;3126;52.738;8.316;2022-07-04T03:28:26;13.70;91.60
6186;DHT22;3126;52.738;8.316;2022-07-04T03:33:27;13.70;92.00
6186;DHT22;3126;52.738;8.316;2022-07-04T03:38:28;13.70;92.00
6186;DHT22;3126;52.738;8.316;2022-07-04T03:43:28;13.70;91.90
6186;DHT22;3126;52.738;8.316;2022-07-04T03:48:29;13.60;91.70
6186;DHT22;3126;52.738;8.316;2022-07-04T03:53:30;13.50;92.10
6186;DHT22;3126;52.738;8.316;2022-07-04T03:58:31;13.40;92.60
6186;DHT22;3126;52.738;8.316;2022-07-04T04:03:31;13.40;93.20
6186;DHT22;3126;52.738;8.316;2022-07-04T04:08:50;13.40;93.50
6186;DHT22;3126;52.738;8.316;2022-07-04T04:13:51;13.40;94.00
6186;DHT22;3126;52.738;8.316;2022-07-04T04:18:52;13.50;94.60
6186;DHT22;3126;52.738;8.316;2022-07-04T04:23:52;13.60;94.70
6186;DHT22;3126;52.738;8.316;2022-07-04T04:28:53;13.60;93.80
6186;DHT22;3126;52.738;8.316;2022-07-04T04:33:53;13.60;94.40
6186;DHT22;3126;52.738;8.316;2022-07-04T04:38:54;13.60;94.50
6186;DHT22;3126;52.738;8.316;2022-07-04T04:43:55;13.70;95.10
6186;DHT22;3126;52.738;8.316;2022-07-04T04:48:55;13.80;94.90
6186;DHT22;3126;52.738;8.316;2022-07-04T04:53:56;13.90;95.00
6186;DHT22;3126;52.738;8.316;2022-07-04T04:58:57;14.00;93.90
6186;DHT22;3126;52.738;8.316;2022-07-04T05:03:57;14.00;93.70
6186;DHT22;3126;52.738;8.316;2022-07-04T05:08:58;14.10;92.80
6186;DHT22;3126;52.738;8.316;2022-07-04T05:13:58;14.20;92.30
6186;DHT22;3126;52.738;8.316;2022-07-04T05:18:59;14.30;91.90
6186;DHT22;3126;52.738;8.316;2022-07-04T05:24:01;14.40;90.80
6186;DHT22;3126;52.738;8.316;2022-07-04T05:29:01;14.60;90.20
6186;DHT22;3126;52.738;8.316;2022-07-04T05:34:02;14.80;88.40
6186;DHT22;3126;52.738;8.316;2022-07-04T05:39:03;15.10;86.80
6186;DHT22;3126;52.738;8.316;2022-07-04T05:44:03;15.40;84.80
6186;DHT22;3126;52.738;8.316;2022-07-04T05:49:04;15.80;82.10
6186;DHT22;3126;52.738;8.316;2022-07-04T05:54:05;16.20;79.50
6186;DHT22;3126;52.738;8.316;2022-07-04T05:59:05;16.60;78.00
6186;DHT22;3126;52.738;8.316;2022-07-04T06:04:06;17.00;76.40
6186;DHT22;3126;52.738;8.316;2022-07-04T06:09:06;17.40;74.90
6186;DHT22;3126;52.738;8.316;2022-07-04T06:14:07;17.90;72.80
6186;DHT22;3126;52.738;8.316;2022-07-04T06:19:08;18.30;71.80
6186;DHT22;3126;52.738;8.316;2022-07-04T06:24:09;18.60;71.20
6186;DHT22;3126;52.738;8.316;2022-07-04T06:29:09;18.80;70.00
6186;DHT22;3126;52.738;8.316;2022-07-04T06:34:10;19.10;68.80
6186;DHT22;3126;52.738;8.316;2022-07-04T06:39:29;19.40;67.40
6186;DHT22;3126;52.738;8.316;2022-07-04T06:44:30;20.10;64.50
6186;DHT22;3126;52.738;8.316;2022-07-04T06:49:31;20.80;61.20
6186;DHT22;3126;52.738;8.316;2022-07-04T06:54:31;21.20;59.40
6186;DHT22;3126;52.738;8.316;2022-07-04T06:59:32;21.80;55.90
6186;DHT22;3126;52.738;8.316;2022-07-04T07:04:32;22.60;55.00
6186;DHT22;3126;52.738;8.316;2022-07-04T07:09:33;23.20;51.80
6186;DHT22;3126;52.738;8.316;2022-07-04T07:14:34;22.80;52.50
6186;DHT22;3126;52.738;8.316;2022-07-04T07:19:35;23.10;52.10
6186;DHT22;3126;52.738;8.316;2022-07-04T07:24:35;23.60;50.70
6186;DHT22;3126;52.738;8.316;2022-07-04T07:29:37;24.10;48.90
6186;DHT22;3126;52.738;8.316;2022-07-04T07:34:37;24.50;47.50
6186;DHT22;3126;52.738;8.316;2022-07-04T07:39:38;24.50;47.50
6186;DHT22;3126;52.738;8.316;2022-07-04T07:44:39;24.20;44.70
6186;DHT22;3126;52.738;8.316;2022-07-04T07:49:39;24.80;46.80
6186;DHT22;3126;52.738;8.316;2022-07-04T07:54:40;25.10;45.40
6186;DHT22;3126;52.738;8.316;2022-07-04T07:59:41;25.20;45.10
6186;DHT22;3126;52.738;8.316;2022-07-04T08:04:42;25.00;46.10
6186;DHT22;3126;52.738;8.316;2022-07-04T08:14:43;26.00;45.30
6186;DHT22;3126;52.738;8.316;2022-07-04T08:19:44;25.90;43.00
6186;DHT22;3126;52.738;8.316;2022-07-04T08:24:44;25.50;42.60
6186;DHT22;3126;52.738;8.316;2022-07-04T08:29:45;25.80;43.90
6186;DHT22;3126;52.738;8.316;2022-07-04T15:19:10;26.00;42.40
6186;DHT22;3126;52.738;8.316;2022-07-04T15:34:14;24.20;43.20
6186;DHT22;3126;52.738;8.316;2022-07-04T15:39:15;24.20;43.50
6186;DHT22;3126;52.738;8.316;2022-07-04T15:44:16;24.10;42.00
6186;DHT22;3126;52.738;8.316;2022-07-04T15:49:17;24.20;41.70
6186;DHT22;3126;52.738;8.316;2022-07-04T15:54:17;24.00;42.10
6186;DHT22;3126;52.738;8.316;2022-07-04T15:59:19;24.10;42.40
6186;DHT22;3126;52.738;8.316;2022-07-04T16:04:19;23.90;43.20
6186;DHT22;3126;52.738;8.316;2022-07-04T16:09:20;23.70;44.70
6186;DHT22;3126;52.738;8.316;2022-07-04T16:14:21;23.70;44.30
6186;DHT22;3126;52.738;8.316;2022-07-04T17:24:36;23.60;43.80
6186;DHT22;3126;52.738;8.316;2022-07-04T17:29:37;22.70;45.50
6186;DHT22;3126;52.738;8.316;2022-07-04T17:34:37;22.60;45.30
6186;DHT22;3126;52.738;8.316;2022-07-04T17:44:40;22.50;44.60
6186;DHT22;3126;52.738;8.316;2022-07-04T17:49:41;22.20;44.80
6186;DHT22;3126;52.738;8.316;2022-07-04T17:59:45;22.20;44.90
6186;DHT22;3126;52.738;8.316;2022-07-04T18:04:47;22.00;44.00
6186;DHT22;3126;52.738;8.316;2022-07-04T18:34:53;21.90;44.60
6186;DHT22;3126;52.738;8.316;2022-07-04T19:30:08;21.40;46.30
6186;DHT22;3126;52.738;8.316;2022-07-04T19:35:10;20.10;49.90
6186;DHT22;3126;52.738;8.316;2022-07-04T19:40:11;20.00;50.40
6186;DHT22;3126;52.738;8.316;2022-07-04T19:45:11;19.80;50.60
6186;DHT22;3126;52.738;8.316;2022-07-04T19:50:12;19.70;50.90
6186;DHT22;3126;52.738;8.316;2022-07-04T19:55:13;19.60;51.30
6186;DHT22;3126;52.738;8.316;2022-07-04T20:00:17;19.50;51.90
6186;DHT22;3126;52.738;8.316;2022-07-04T20:05:18;19.20;53.00
6186;DHT22;3126;52.738;8.316;2022-07-04T20:10:18;19.10;54.50
6186;DHT22;3126;52.738;8.316;2022-07-04T20:15:19;18.90;55.00
6186;DHT22;3126;52.738;8.316;2022-07-04T20:20:20;18.70;55.50
6186;DHT22;3126;52.738;8.316;2022-07-04T20:25:21;18.60;57.30
6186;DHT22;3126;52.738;8.316;2022-07-04T20:35:23;18.40;57.90
6186;DHT22;3126;52.738;8.316;2022-07-04T20:40:23;18.10;58.40
6186;DHT22;3126;52.738;8.316;2022-07-04T20:50:25;18.20;59.70
6186;DHT22;3126;52.738;8.316;2022-07-04T20:55:26;17.60;60.70
6186;DHT22;3126;52.738;8.316;2022-07-04T21:00:27;17.50;60.90
6186;DHT22;3126;52.738;8.316;2022-07-04T21:05:27;17.40;60.90
6186;DHT22;3126;52.738;8.316;2022-07-04T21:10:28;17.30;61.50
6186;DHT22;3126;52.738;8.316;2022-07-04T21:15:29;17.20;61.50
6186;DHT22;3126;52.738;8.316;2022-07-04T21:20:29;17.10;62.60
6186;DHT22;3126;52.738;8.316;2022-07-04T21:25:30;17.00;63.20
6186;DHT22;3126;52.738;8.316;2022-07-04T21:30:31;16.80;64.40
6186;DHT22;3126;52.738;8.316;2022-07-04T21:35:32;16.70;64.90
6186;DHT22;3126;52.738;8.316;2022-07-04T21:40:33;16.60;64.90
6186;DHT22;3126;52.738;8.316;2022-07-04T21:45:34;16.40;65.40
6186;DHT22;3126;52.738;8.316;2022-07-04T21:50:35;16.30;66.20
6186;DHT22;3126;52.738;8.316;2022-07-04T21:55:35;16.20;67.30
6186;DHT22;3126;52.738;8.316;2022-07-04T22:00:36;16.10;67.30
6186;DHT22;3126;52.738;8.316;2022-07-04T22:05:37;16.10;68.20
6186;DHT22;3126;52.738;8.316;2022-07-04T22:10:38;15.90;67.90
6186;DHT22;3126;52.738;8.316;2022-07-04T22:15:38;15.80;68.50
6186;DHT22;3126;52.738;8.316;2022-07-04T22:20:39;15.70;69.10
6186;DHT22;3126;52.738;8.316;2022-07-04T22:25:40;15.60;69.50
6186;DHT22;3126;52.738;8.316;2022-07-04T22:30:41;15.40;70.30
6186;DHT22;3126;52.738;8.316;2022-07-04T22:35:41;15.20;71.00
6186;DHT22;3126;52.738;8.316;2022-07-04T22:40:42;15.20;71.30
6186;DHT22;3126;52.738;8.316;2022-07-04T22:45:43;15.10;71.50
6186;DHT22;3126;52.738;8.316;2022-07-04T22:50:43;15.10;72.50
6186;DHT22;3126;52.738;8.316;2022-07-04T22:56:03;15.00;72.00
6186;DHT22;3126;52.738;8.316;2022-07-04T23:01:03;14.90;72.70
6186;DHT22;3126;52.738;8.316;2022-07-04T23:06:04;14.70;73.30
6186;DHT22;3126;52.738;8.316;2022-07-04T23:11:05;14.60;73.90
6186;DHT22;3126;52.738;8.316;2022-07-04T23:16:06;14.50;74.40
6186;DHT22;3126;52.738;8.316;2022-07-04T23:21:07;14.40;74.90
6186;DHT22;3126;52.738;8.316;2022-07-04T23:26:07;14.30;75.20
6186;DHT22;3126;52.738;8.316;2022-07-04T23:31:08;14.20;75.80
6186;DHT22;3126;52.738;8.316;2022-07-04T23:36:08;14.20;76.30
6186;DHT22;3126;52.738;8.316;2022-07-04T23:41:09;14.20;75.90
6186;DHT22;3126;52.738;8.316;2022-07-04T23:46:10;14.10;76.80
6186;DHT22;3126;52.738;8.316;2022-07-04T23:51:11;14.00;76.50
6186;DHT22;3126;52.738;8.316;2022-07-04T23:56:11;13.90;77.00
